sensor_id;sensor_type;location;lat;lon;timestamp;P1;durP1;ratioP1;P2;durP2;ratioP2
54599;SDS011;40500;51.084;16.958;2023-05-07T00:00:19;3.90;;;3.30;;
54599;SDS011;40500;51.084;16.958;2023-05-07T00:02:50;4.60;;;3.40;;
54599;SDS011;40500;51.084;16.958;2023-05-07T00:05:21;4.40;;;3.80;;
54599;SDS011;40500;51.084;16.958;2023-05-07T00:07:52;3.40;;;3.00;;
54599;SDS011;40500;51.084;16.958;2023-05-07T00:10:25;4.70;;;3.30;;
54599;SDS011;40500;51.084;16.958;2023-05-07T00:12:56;5.00;;;3.40;;
54599;SDS011;40500;51.084;16.958;2023-05-07T00:15:26;3.50;;;3.00;;
54599;SDS011;40500;51.084;16.958;2023-05-07T00:17:57;5.30;;;3.30;;
54599;SDS011;40500;51.084;16.958;2023-05-07T00:20:27;3.30;;;3.00;;
54599;SDS011;40500;51.084;16.958;2023-05-07T00:22:58;3.40;;;2.70;;
54599;SDS011;40500;51.084;16.958;2023-05-07T00:25:28;4.50;;;3.00;;
54599;SDS011;40500;51.084;16.958;2023-05-07T00:27:58;3.60;;;3.30;;
54599;SDS011;40500;51.084;16.958;2023-05-07T00:30:31;5.00;;;3.90;;
54599;SDS011;40500;51.084;16.958;2023-05-07T00:33:02;3.80;;;3.40;;
54599;SDS011;40500;51.084;16.958;2023-05-07T00:35:34;4.60;;;3.10;;
54599;SDS011;40500;51.084;16.958;2023-05-07T00:38:04;4.50;;;4.10;;
54599;SDS011;40500;51.084;16.958;2023-05-07T00:40:34;5.40;;;3.10;;
54599;SDS011;40500;51.084;16.958;2023-05-07T00:43:05;4.90;;;3.40;;
54599;SDS011;40500;51.084;16.958;2023-05-07T00:45:36;4.20;;;3.10;;
54599;SDS011;40500;51.084;16.958;2023-05-07T00:48:07;3.60;;;2.80;;
54599;SDS011;40500;51.084;16.958;2023-05-07T00:50:38;3.00;;;2.70;;
54599;SDS011;40500;51.084;16.958;2023-05-07T00:53:08;3.00;;;2.70;;
54599;SDS011;40500;51.084;16.958;2023-05-07T00:55:39;4.10;;;3.20;;
54599;SDS011;40500;51.084;16.958;2023-05-07T00:58:10;3.70;;;3.00;;
54599;SDS011;40500;51.084;16.958;2023-05-07T01:00:40;3.90;;;3.10;;
54599;SDS011;40500;51.084;16.958;2023-05-07T01:03:11;5.00;;;3.10;;
54599;SDS011;40500;51.084;16.958;2023-05-07T01:05:42;4.70;;;4.20;;
54599;SDS011;40500;51.084;16.958;2023-05-07T01:08:14;5.10;;;3.10;;
54599;SDS011;40500;51.084;16.958;2023-05-07T01:10:46;4.40;;;3.40;;
54599;SDS011;40500;51.084;16.958;2023-05-07T01:13:17;4.90;;;3.60;;
54599;SDS011;40500;51.084;16.958;2023-05-07T01:15:49;3.50;;;3.20;;
54599;SDS011;40500;51.084;16.958;2023-05-07T01:18:20;2.60;;;2.40;;
54599;SDS011;40500;51.084;16.958;2023-05-07T01:20:50;5.00;;;3.90;;
54599;SDS011;40500;51.084;16.958;2023-05-07T01:23:23;3.50;;;3.20;;
54599;SDS011;40500;51.084;16.958;2023-05-07T01:25:56;3.60;;;2.90;;
54599;SDS011;40500;51.084;16.958;2023-05-07T01:28:27;3.60;;;3.20;;
54599;SDS011;40500;51.084;16.958;2023-05-07T01:31:00;3.30;;;3.00;;
54599;SDS011;40500;51.084;16.958;2023-05-07T01:33:33;3.50;;;3.20;;
54599;SDS011;40500;51.084;16.958;2023-05-07T01:36:06;3.00;;;2.70;;
54599;SDS011;40500;51.084;16.958;2023-05-07T01:38:38;4.10;;;2.90;;
54599;SDS011;40500;51.084;16.958;2023-05-07T01:41:10;4.10;;;3.70;;
54599;SDS011;40500;51.084;16.958;2023-05-07T01:43:42;3.30;;;3.00;;
54599;SDS011;40500;51.084;16.958;2023-05-07T01:46:13;4.40;;;3.50;;
54599;SDS011;40500;51.084;16.958;2023-05-07T01:48:46;4.00;;;3.60;;
54599;SDS011;40500;51.084;16.958;2023-05-07T01:51:17;3.60;;;3.20;;
54599;SDS011;40500;51.084;16.958;2023-05-07T01:53:49;4.30;;;3.60;;
54599;SDS011;40500;51.084;16.958;2023-05-07T01:56:23;7.00;;;3.40;;
54599;SDS011;40500;51.084;16.958;2023-05-07T01:58:55;4.90;;;3.60;;
54599;SDS011;40500;51.084;16.958;2023-05-07T02:01:25;3.70;;;3.30;;
54599;SDS011;40500;51.084;16.958;2023-05-07T02:03:56;4.40;;;3.90;;
54599;SDS011;40500;51.084;16.958;2023-05-07T02:06:27;3.70;;;3.30;;
54599;SDS011;40500;51.084;16.958;2023-05-07T02:09:03;7.30;;;4.70;;
54599;SDS011;40500;51.084;16.958;2023-05-07T02:11:34;3.70;;;3.30;;
54599;SDS011;40500;51.084;16.958;2023-05-07T02:14:04;6.50;;;4.70;;
54599;SDS011;40500;51.084;16.958;2023-05-07T02:16:35;3.80;;;3.40;;
54599;SDS011;40500;51.084;16.958;2023-05-07T02:19:05;4.40;;;3.70;;
54599;SDS011;40500;51.084;16.958;2023-05-07T02:21:36;5.70;;;4.00;;
54599;SDS011;40500;51.084;16.958;2023-05-07T02:24:07;6.10;;;4.00;;
54599;SDS011;40500;51.084;16.958;2023-05-07T02:26:37;7.90;;;4.60;;
54599;SDS011;40500;51.084;16.958;2023-05-07T02:29:08;5.10;;;4.00;;
54599;SDS011;40500;51.084;16.958;2023-05-07T02:31:39;4.90;;;3.50;;
54599;SDS011;40500;51.084;16.958;2023-05-07T02:34:11;4.60;;;3.20;;
54599;SDS011;40500;51.084;16.958;2023-05-07T02:36:41;7.80;;;4.70;;
54599;SDS011;40500;51.084;16.958;2023-05-07T02:39:13;4.70;;;3.70;;
54599;SDS011;40500;51.084;16.958;2023-05-07T02:41:44;4.30;;;3.80;;
54599;SDS011;40500;51.084;16.958;2023-05-07T02:44:14;4.30;;;3.00;;
54599;SDS011;40500;51.084;16.958;2023-05-07T02:46:45;5.90;;;3.80;;
54599;SDS011;40500;51.084;16.958;2023-05-07T02:49:16;4.80;;;4.00;;
54599;SDS011;40500;51.084;16.958;2023-05-07T02:51:46;5.30;;;3.90;;
54599;SDS011;40500;51.084;16.958;2023-05-07T02:54:20;3.80;;;3.30;;
54599;SDS011;40500;51.084;16.958;2023-05-07T02:56:51;4.30;;;3.30;;
54599;SDS011;40500;51.084;16.958;2023-05-07T02:59:21;4.50;;;3.70;;
54599;SDS011;40500;51.084;16.958;2023-05-07T03:01:53;4.70;;;3.70;;
54599;SDS011;40500;51.084;16.958;2023-05-07T03:04:23;4.60;;;3.70;;
54599;SDS011;40500;51.084;16.958;2023-05-07T03:06:54;4.00;;;3.40;;
54599;SDS011;40500;51.084;16.958;2023-05-07T03:09:24;4.20;;;3.80;;
54599;SDS011;40500;51.084;16.958;2023-05-07T03:11:55;4.50;;;3.70;;
54599;SDS011;40500;51.084;16.958;2023-05-07T03:14:26;4.60;;;3.40;;
54599;SDS011;40500;51.084;16.958;2023-05-07T03:16:56;3.70;;;3.20;;
54599;SDS011;40500;51.084;16.958;2023-05-07T03:19:27;3.70;;;3.00;;
54599;SDS011;40500;51.084;16.958;2023-05-07T03:21:58;3.40;;;3.10;;
54599;SDS011;40500;51.084;16.958;2023-05-07T03:24:29;5.50;;;4.10;;
54599;SDS011;40500;51.084;16.958;2023-05-07T03:26:59;4.80;;;3.40;;
54599;SDS011;40500;51.084;16.958;2023-05-07T03:29:30;4.80;;;3.60;;
54599;SDS011;40500;51.084;16.958;2023-05-07T03:32:00;5.40;;;3.50;;
54599;SDS011;40500;51.084;16.958;2023-05-07T03:34:31;5.60;;;4.20;;
54599;SDS011;40500;51.084;16.958;2023-05-07T03:37:02;5.40;;;3.90;;
54599;SDS011;40500;51.084;16.958;2023-05-07T03:39:32;3.90;;;3.40;;
54599;SDS011;40500;51.084;16.958;2023-05-07T03:42:03;5.00;;;4.10;;
54599;SDS011;40500;51.084;16.958;2023-05-07T03:44:34;4.90;;;3.60;;
54599;SDS011;40500;51.084;16.958;2023-05-07T03:47:05;5.40;;;3.90;;
54599;SDS011;40500;51.084;16.958;2023-05-07T03:49:36;5.30;;;3.30;;
54599;SDS011;40500;51.084;16.958;2023-05-07T03:52:06;4.20;;;2.90;;
54599;SDS011;40500;51.084;16.958;2023-05-07T03:54:37;6.40;;;3.40;;
54599;SDS011;40500;51.084;16.958;2023-05-07T03:57:07;5.70;;;3.60;;
54599;SDS011;40500;51.084;16.958;2023-05-07T03:59:38;6.10;;;3.90;;
54599;SDS011;40500;51.084;16.958;2023-05-07T04:02:08;4.40;;;3.10;;
54599;SDS011;40500;51.084;16.958;2023-05-07T04:04:39;5.20;;;3.50;;
54599;SDS011;40500;51.084;16.958;2023-05-07T04:07:09;4.80;;;2.70;;
54599;SDS011;40500;51.084;16.958;2023-05-07T04:09:42;3.10;;;2.50;;
54599;SDS011;40500;51.084;16.958;2023-05-07T04:12:12;2.90;;;2.60;;
54599;SDS011;40500;51.084;16.958;2023-05-07T04:14:44;3.30;;;2.50;;
54599;SDS011;40500;51.084;16.958;2023-05-07T04:17:15;3.70;;;3.30;;
54599;SDS011;40500;51.084;16.958;2023-05-07T04:19:45;3.80;;;2.60;;
54599;SDS011;40500;51.084;16.958;2023-05-07T04:22:16;5.10;;;2.20;;
54599;SDS011;40500;51.084;16.958;2023-05-07T04:24:47;3.50;;;2.90;;
54599;SDS011;40500;51.084;16.958;2023-05-07T04:27:18;3.40;;;2.70;;
54599;SDS011;40500;51.084;16.958;2023-05-07T04:29:49;3.00;;;2.70;;
54599;SDS011;40500;51.084;16.958;2023-05-07T04:32:23;2.40;;;2.10;;
54599;SDS011;40500;51.084;16.958;2023-05-07T04:34:54;2.80;;;2.50;;
54599;SDS011;40500;51.084;16.958;2023-05-07T04:37:25;6.20;;;2.80;;
54599;SDS011;40500;51.084;16.958;2023-05-07T04:39:55;2.90;;;2.30;;
54599;SDS011;40500;51.084;16.958;2023-05-07T04:42:26;3.90;;;2.80;;
54599;SDS011;40500;51.084;16.958;2023-05-07T04:44:58;2.60;;;2.40;;
54599;SDS011;40500;51.084;16.958;2023-05-07T04:47:30;3.20;;;2.80;;
54599;SDS011;40500;51.084;16.958;2023-05-07T04:50:01;7.90;;;3.40;;
54599;SDS011;40500;51.084;16.958;2023-05-07T04:52:32;3.80;;;2.90;;
54599;SDS011;40500;51.084;16.958;2023-05-07T04:55:03;3.70;;;3.30;;
54599;SDS011;40500;51.084;16.958;2023-05-07T04:57:37;3.10;;;2.80;;
54599;SDS011;40500;51.084;16.958;2023-05-07T05:00:11;3.50;;;3.00;;
54599;SDS011;40500;51.084;16.958;2023-05-07T05:02:43;3.30;;;3.00;;
54599;SDS011;40500;51.084;16.958;2023-05-07T05:05:16;4.40;;;3.70;;
54599;SDS011;40500;51.084;16.958;2023-05-07T05:07:48;4.60;;;3.70;;
54599;SDS011;40500;51.084;16.958;2023-05-07T05:10:19;3.40;;;3.00;;
54599;SDS011;40500;51.084;16.958;2023-05-07T05:12:51;4.10;;;3.70;;
54599;SDS011;40500;51.084;16.958;2023-05-07T05:15:22;6.80;;;5.40;;
54599;SDS011;40500;51.084;16.958;2023-05-07T05:17:53;6.00;;;5.10;;
54599;SDS011;40500;51.084;16.958;2023-05-07T05:20:23;7.00;;;5.80;;
54599;SDS011;40500;51.084;16.958;2023-05-07T05:22:53;5.70;;;5.10;;
54599;SDS011;40500;51.084;16.958;2023-05-07T05:25:24;6.10;;;4.40;;
54599;SDS011;40500;51.084;16.958;2023-05-07T05:27:56;4.50;;;4.10;;
54599;SDS011;40500;51.084;16.958;2023-05-07T05:30:26;3.40;;;3.00;;
54599;SDS011;40500;51.084;16.958;2023-05-07T05:32:57;2.50;;;2.30;;
54599;SDS011;40500;51.084;16.958;2023-05-07T05:35:29;2.20;;;2.00;;
54599;SDS011;40500;51.084;16.958;2023-05-07T05:38:02;2.50;;;2.30;;
54599;SDS011;40500;51.084;16.958;2023-05-07T05:40:33;3.30;;;2.50;;
54599;SDS011;40500;51.084;16.958;2023-05-07T05:43:04;3.10;;;2.70;;
54599;SDS011;40500;51.084;16.958;2023-05-07T05:45:36;2.90;;;2.60;;
54599;SDS011;40500;51.084;16.958;2023-05-07T05:48:07;3.30;;;3.00;;
54599;SDS011;40500;51.084;16.958;2023-05-07T05:50:38;3.40;;;3.10;;
54599;SDS011;40500;51.084;16.958;2023-05-07T05:53:09;3.00;;;2.60;;
54599;SDS011;40500;51.084;16.958;2023-05-07T05:55:39;2.80;;;2.60;;
54599;SDS011;40500;51.084;16.958;2023-05-07T05:58:11;2.90;;;2.30;;
54599;SDS011;40500;51.084;16.958;2023-05-07T06:00:49;3.20;;;2.90;;
54599;SDS011;40500;51.084;16.958;2023-05-07T06:03:22;5.10;;;3.00;;
54599;SDS011;40500;51.084;16.958;2023-05-07T06:05:55;3.40;;;3.00;;
54599;SDS011;40500;51.084;16.958;2023-05-07T06:08:29;3.10;;;2.80;;
54599;SDS011;40500;51.084;16.958;2023-05-07T06:11:01;2.50;;;2.30;;
54599;SDS011;40500;51.084;16.958;2023-05-07T06:13:33;2.00;;;1.90;;
54599;SDS011;40500;51.084;16.958;2023-05-07T06:16:04;3.30;;;2.60;;
54599;SDS011;40500;51.084;16.958;2023-05-07T06:18:36;3.50;;;3.00;;
54599;SDS011;40500;51.084;16.958;2023-05-07T06:21:07;2.60;;;2.40;;
54599;SDS011;40500;51.084;16.958;2023-05-07T06:23:38;3.80;;;2.20;;
54599;SDS011;40500;51.084;16.958;2023-05-07T06:26:09;5.10;;;2.40;;
54599;SDS011;40500;51.084;16.958;2023-05-07T06:28:41;3.40;;;3.10;;
54599;SDS011;40500;51.084;16.958;2023-05-07T06:31:14;3.60;;;3.00;;
54599;SDS011;40500;51.084;16.958;2023-05-07T06:33:53;4.50;;;3.20;;
54599;SDS011;40500;51.084;16.958;2023-05-07T06:36:27;3.10;;;2.80;;
54599;SDS011;40500;51.084;16.958;2023-05-07T06:38:58;3.40;;;2.90;;
54599;SDS011;40500;51.084;16.958;2023-05-07T06:41:29;2.80;;;2.30;;
54599;SDS011;40500;51.084;16.958;2023-05-07T06:44:03;2.80;;;2.50;;
54599;SDS011;40500;51.084;16.958;2023-05-07T06:46:39;2.00;;;1.90;;
54599;SDS011;40500;51.084;16.958;2023-05-07T06:49:11;2.30;;;2.10;;
54599;SDS011;40500;51.084;16.958;2023-05-07T06:51:43;2.50;;;2.30;;
54599;SDS011;40500;51.084;16.958;2023-05-07T06:54:13;2.40;;;2.20;;
54599;SDS011;40500;51.084;16.958;2023-05-07T06:56:44;2.60;;;2.20;;
54599;SDS011;40500;51.084;16.958;2023-05-07T06:59:14;2.10;;;1.90;;
54599;SDS011;40500;51.084;16.958;2023-05-07T07:01:44;1.90;;;1.80;;
54599;SDS011;40500;51.084;16.958;2023-05-07T07:04:16;2.90;;;2.40;;
54599;SDS011;40500;51.084;16.958;2023-05-07T07:06:50;4.50;;;3.60;;
54599;SDS011;40500;51.084;16.958;2023-05-07T07:09:23;4.50;;;3.80;;
54599;SDS011;40500;51.084;16.958;2023-05-07T07:11:53;3.00;;;2.70;;
54599;SDS011;40500;51.084;16.958;2023-05-07T07:14:24;3.60;;;2.70;;
54599;SDS011;40500;51.084;16.958;2023-05-07T07:16:54;2.40;;;2.20;;
54599;SDS011;40500;51.084;16.958;2023-05-07T07:19:25;2.30;;;2.10;;
54599;SDS011;40500;51.084;16.958;2023-05-07T07:21:56;2.90;;;2.60;;
54599;SDS011;40500;51.084;16.958;2023-05-07T07:24:29;2.00;;;1.90;;
54599;SDS011;40500;51.084;16.958;2023-05-07T07:27:02;2.10;;;1.90;;
54599;SDS011;40500;51.084;16.958;2023-05-07T07:29:34;2.30;;;2.10;;
54599;SDS011;40500;51.084;16.958;2023-05-07T07:32:04;2.60;;;2.30;;
54599;SDS011;40500;51.084;16.958;2023-05-07T07:34:35;2.40;;;2.20;;
54599;SDS011;40500;51.084;16.958;2023-05-07T07:37:05;2.40;;;1.90;;
54599;SDS011;40500;51.084;16.958;2023-05-07T07:39:36;2.10;;;1.90;;
54599;SDS011;40500;51.084;16.958;2023-05-07T07:42:07;2.90;;;1.90;;
54599;SDS011;40500;51.084;16.958;2023-05-07T07:44:38;1.80;;;1.70;;
54599;SDS011;40500;51.084;16.958;2023-05-07T07:47:10;1.60;;;1.50;;
54599;SDS011;40500;51.084;16.958;2023-05-07T07:49:41;1.50;;;1.40;;
54599;SDS011;40500;51.084;16.958;2023-05-07T07:52:11;1.70;;;1.60;;
54599;SDS011;40500;51.084;16.958;2023-05-07T07:54:41;2.10;;;1.90;;
54599;SDS011;40500;51.084;16.958;2023-05-07T07:57:12;1.60;;;1.20;;
54599;SDS011;40500;51.084;16.958;2023-05-07T07:59:43;2.40;;;1.70;;
54599;SDS011;40500;51.084;16.958;2023-05-07T08:02:14;1.70;;;1.60;;
54599;SDS011;40500;51.084;16.958;2023-05-07T08:04:45;1.70;;;1.60;;
54599;SDS011;40500;51.084;16.958;2023-05-07T08:07:16;2.20;;;2.00;;
54599;SDS011;40500;51.084;16.958;2023-05-07T08:09:48;1.70;;;1.60;;
54599;SDS011;40500;51.084;16.958;2023-05-07T08:12:21;2.50;;;2.30;;
54599;SDS011;40500;51.084;16.958;2023-05-07T08:14:51;2.80;;;2.30;;
54599;SDS011;40500;51.084;16.958;2023-05-07T08:17:22;2.30;;;2.10;;
54599;SDS011;40500;51.084;16.958;2023-05-07T08:19:53;2.00;;;1.90;;
54599;SDS011;40500;51.084;16.958;2023-05-07T08:22:24;2.80;;;2.20;;
54599;SDS011;40500;51.084;16.958;2023-05-07T08:24:54;2.80;;;2.40;;
54599;SDS011;40500;51.084;16.958;2023-05-07T08:27:25;2.70;;;2.50;;
54599;SDS011;40500;51.084;16.958;2023-05-07T08:29:55;3.30;;;2.60;;
54599;SDS011;40500;51.084;16.958;2023-05-07T08:32:26;3.00;;;2.70;;
54599;SDS011;40500;51.084;16.958;2023-05-07T08:34:57;4.40;;;2.80;;
54599;SDS011;40500;51.084;16.958;2023-05-07T08:37:27;3.10;;;2.80;;
54599;SDS011;40500;51.084;16.958;2023-05-07T08:39:58;2.50;;;2.20;;
54599;SDS011;40500;51.084;16.958;2023-05-07T08:42:31;3.00;;;2.80;;
54599;SDS011;40500;51.084;16.958;2023-05-07T08:45:07;6.30;;;2.80;;
54599;SDS011;40500;51.084;16.958;2023-05-07T08:47:43;5.40;;;2.80;;
54599;SDS011;40500;51.084;16.958;2023-05-07T08:50:16;2.70;;;2.50;;
54599;SDS011;40500;51.084;16.958;2023-05-07T08:52:49;3.60;;;2.60;;
54599;SDS011;40500;51.084;16.958;2023-05-07T08:55:20;4.30;;;3.50;;
54599;SDS011;40500;51.084;16.958;2023-05-07T08:57:51;3.10;;;2.80;;
54599;SDS011;40500;51.084;16.958;2023-05-07T09:00:22;3.10;;;2.80;;
54599;SDS011;40500;51.084;16.958;2023-05-07T09:02:53;3.30;;;3.00;;
54599;SDS011;40500;51.084;16.958;2023-05-07T09:05:24;3.20;;;2.90;;
54599;SDS011;40500;51.084;16.958;2023-05-07T09:07:58;3.70;;;3.40;;
54599;SDS011;40500;51.084;16.958;2023-05-07T09:10:31;3.70;;;2.70;;
54599;SDS011;40500;51.084;16.958;2023-05-07T09:13:03;3.50;;;3.20;;
54599;SDS011;40500;51.084;16.958;2023-05-07T09:15:34;3.80;;;3.40;;
54599;SDS011;40500;51.084;16.958;2023-05-07T09:18:05;4.90;;;3.90;;
54599;SDS011;40500;51.084;16.958;2023-05-07T09:20:37;3.80;;;3.50;;
54599;SDS011;40500;51.084;16.958;2023-05-07T09:23:08;3.10;;;2.80;;
54599;SDS011;40500;51.084;16.958;2023-05-07T09:25:39;4.10;;;3.30;;
54599;SDS011;40500;51.084;16.958;2023-05-07T09:28:15;3.30;;;3.00;;
54599;SDS011;40500;51.084;16.958;2023-05-07T09:30:46;4.30;;;3.70;;
54599;SDS011;40500;51.084;16.958;2023-05-07T09:33:16;3.20;;;2.90;;
54599;SDS011;40500;51.084;16.958;2023-05-07T09:35:51;3.10;;;2.70;;
54599;SDS011;40500;51.084;16.958;2023-05-07T09:38:22;4.70;;;3.30;;
54599;SDS011;40500;51.084;16.958;2023-05-07T09:41:04;3.50;;;3.10;;
54599;SDS011;40500;51.084;16.958;2023-05-07T09:43:49;4.20;;;3.40;;
54599;SDS011;40500;51.084;16.958;2023-05-07T09:46:29;3.20;;;2.90;;
54599;SDS011;40500;51.084;16.958;2023-05-07T09:49:06;4.80;;;2.90;;
54599;SDS011;40500;51.084;16.958;2023-05-07T09:54:15;2.40;;;2.20;;
54599;SDS011;40500;51.084;16.958;2023-05-07T09:56:49;2.30;;;2.10;;
54599;SDS011;40500;51.084;16.958;2023-05-07T09:59:22;3.50;;;2.90;;
54599;SDS011;40500;51.084;16.958;2023-05-07T10:01:59;3.50;;;3.20;;
54599;SDS011;40500;51.084;16.958;2023-05-07T10:04:33;3.50;;;3.20;;
54599;SDS011;40500;51.084;16.958;2023-05-07T10:07:04;7.20;;;3.90;;
54599;SDS011;40500;51.084;16.958;2023-05-07T10:09:36;5.60;;;3.40;;
54599;SDS011;40500;51.084;16.958;2023-05-07T10:12:17;4.90;;;3.40;;
54599;SDS011;40500;51.084;16.958;2023-05-07T10:14:48;6.00;;;4.60;;
54599;SDS011;40500;51.084;16.958;2023-05-07T10:17:22;3.90;;;3.60;;
54599;SDS011;40500;51.084;16.958;2023-05-07T10:19:54;4.30;;;3.90;;
54599;SDS011;40500;51.084;16.958;2023-05-07T10:22:25;4.30;;;3.80;;
54599;SDS011;40500;51.084;16.958;2023-05-07T10:24:57;3.80;;;3.40;;
54599;SDS011;40500;51.084;16.958;2023-05-07T10:27:32;3.60;;;3.30;;
54599;SDS011;40500;51.084;16.958;2023-05-07T10:30:06;3.70;;;3.20;;
54599;SDS011;40500;51.084;16.958;2023-05-07T10:32:42;4.30;;;3.20;;
54599;SDS011;40500;51.084;16.958;2023-05-07T10:35:22;2.90;;;2.70;;
54599;SDS011;40500;51.084;16.958;2023-05-07T10:37:55;2.40;;;2.20;;
54599;SDS011;40500;51.084;16.958;2023-05-07T10:40:27;2.90;;;2.60;;
54599;SDS011;40500;51.084;16.958;2023-05-07T10:43:00;2.90;;;2.40;;
54599;SDS011;40500;51.084;16.958;2023-05-07T10:45:41;2.80;;;2.60;;
54599;SDS011;40500;51.084;16.958;2023-05-07T10:48:13;4.10;;;2.70;;
54599;SDS011;40500;51.084;16.958;2023-05-07T10:51:19;2.60;;;2.40;;
54599;SDS011;40500;51.084;16.958;2023-05-07T10:56:57;3.20;;;2.20;;
54599;SDS011;40500;51.084;16.958;2023-05-07T11:03:19;2.40;;;2.20;;
54599;SDS011;40500;51.084;16.958;2023-05-07T11:06:12;2.60;;;2.40;;
54599;SDS011;40500;51.084;16.958;2023-05-07T11:09:10;3.00;;;2.60;;
54599;SDS011;40500;51.084;16.958;2023-05-07T11:11:47;4.10;;;2.30;;
54599;SDS011;40500;51.084;16.958;2023-05-07T11:17:24;2.50;;;2.30;;
54599;SDS011;40500;51.084;16.958;2023-05-07T11:20:01;2.40;;;2.20;;
54599;SDS011;40500;51.084;16.958;2023-05-07T11:22:38;2.70;;;2.00;;
54599;SDS011;40500;51.084;16.958;2023-05-07T11:25:19;2.50;;;2.30;;
54599;SDS011;40500;51.084;16.958;2023-05-07T11:28:16;2.20;;;2.00;;
54599;SDS011;40500;51.084;16.958;2023-05-07T11:30:55;2.80;;;2.30;;
54599;SDS011;40500;51.084;16.958;2023-05-07T11:33:26;2.30;;;2.10;;
54599;SDS011;40500;51.084;16.958;2023-05-07T11:35:58;2.50;;;2.30;;
54599;SDS011;40500;51.084;16.958;2023-05-07T11:38:35;2.50;;;2.10;;
54599;SDS011;40500;51.084;16.958;2023-05-07T11:41:07;2.70;;;2.50;;
54599;SDS011;40500;51.084;16.958;2023-05-07T11:43:37;2.70;;;2.50;;
54599;SDS011;40500;51.084;16.958;2023-05-07T11:46:22;4.10;;;2.60;;
54599;SDS011;40500;51.084;16.958;2023-05-07T11:48:53;2.80;;;2.60;;
54599;SDS011;40500;51.084;16.958;2023-05-07T11:51:24;2.60;;;2.40;;
54599;SDS011;40500;51.084;16.958;2023-05-07T11:53:55;2.60;;;2.40;;
54599;SDS011;40500;51.084;16.958;2023-05-07T11:56:25;3.30;;;2.60;;
54599;SDS011;40500;51.084;16.958;2023-05-07T11:58:55;3.00;;;2.70;;
54599;SDS011;40500;51.084;16.958;2023-05-07T12:01:25;2.60;;;2.30;;
54599;SDS011;40500;51.084;16.958;2023-05-07T12:03:56;3.00;;;2.40;;
54599;SDS011;40500;51.084;16.958;2023-05-07T12:06:26;2.20;;;2.00;;
54599;SDS011;40500;51.084;16.958;2023-05-07T12:08:57;3.20;;;1.70;;
54599;SDS011;40500;51.084;16.958;2023-05-07T12:11:27;2.10;;;1.90;;
54599;SDS011;40500;51.084;16.958;2023-05-07T12:13:58;2.30;;;2.10;;
54599;SDS011;40500;51.084;16.958;2023-05-07T12:16:28;2.90;;;2.60;;
54599;SDS011;40500;51.084;16.958;2023-05-07T12:18:59;2.20;;;2.00;;
54599;SDS011;40500;51.084;16.958;2023-05-07T12:21:30;2.30;;;2.00;;
54599;SDS011;40500;51.084;16.958;2023-05-07T12:24:02;2.60;;;2.40;;
54599;SDS011;40500;51.084;16.958;2023-05-07T12:26:33;3.40;;;2.00;;
54599;SDS011;40500;51.084;16.958;2023-05-07T12:29:08;2.00;;;1.90;;
54599;SDS011;40500;51.084;16.958;2023-05-07T12:31:41;1.80;;;1.70;;
54599;SDS011;40500;51.084;16.958;2023-05-07T12:34:12;2.40;;;2.20;;
54599;SDS011;40500;51.084;16.958;2023-05-07T12:36:42;2.20;;;2.00;;
54599;SDS011;40500;51.084;16.958;2023-05-07T12:39:12;2.60;;;2.40;;
54599;SDS011;40500;51.084;16.958;2023-05-07T12:41:55;3.60;;;2.30;;
54599;SDS011;40500;51.084;16.958;2023-05-07T12:44:30;2.10;;;1.90;;
54599;SDS011;40500;51.084;16.958;2023-05-07T12:47:02;2.40;;;2.20;;
54599;SDS011;40500;51.084;16.958;2023-05-07T12:49:33;2.40;;;2.00;;
54599;SDS011;40500;51.084;16.958;2023-05-07T12:52:06;2.60;;;2.40;;
54599;SDS011;40500;51.084;16.958;2023-05-07T12:54:37;2.50;;;2.30;;
54599;SDS011;40500;51.084;16.958;2023-05-07T12:57:08;3.30;;;2.30;;
54599;SDS011;40500;51.084;16.958;2023-05-07T12:59:39;2.60;;;2.20;;
54599;SDS011;40500;51.084;16.958;2023-05-07T13:02:10;2.50;;;2.10;;
54599;SDS011;40500;51.084;16.958;2023-05-07T13:04:41;2.60;;;2.40;;
54599;SDS011;40500;51.084;16.958;2023-05-07T13:07:12;2.10;;;2.00;;
54599;SDS011;40500;51.084;16.958;2023-05-07T13:09:42;2.60;;;2.00;;
54599;SDS011;40500;51.084;16.958;2023-05-07T13:12:12;2.30;;;2.00;;
54599;SDS011;40500;51.084;16.958;2023-05-07T13:14:43;3.00;;;2.70;;
54599;SDS011;40500;51.084;16.958;2023-05-07T13:17:13;3.20;;;2.50;;
54599;SDS011;40500;51.084;16.958;2023-05-07T13:19:44;2.50;;;2.20;;
54599;SDS011;40500;51.084;16.958;2023-05-07T13:22:14;2.80;;;2.50;;
54599;SDS011;40500;51.084;16.958;2023-05-07T13:24:44;3.30;;;3.00;;
54599;SDS011;40500;51.084;16.958;2023-05-07T13:27:15;2.40;;;2.20;;
54599;SDS011;40500;51.084;16.958;2023-05-07T13:29:46;3.70;;;2.50;;
54599;SDS011;40500;51.084;16.958;2023-05-07T13:32:16;2.60;;;2.40;;
54599;SDS011;40500;51.084;16.958;2023-05-07T13:34:47;3.10;;;2.70;;
54599;SDS011;40500;51.084;16.958;2023-05-07T13:37:18;3.50;;;3.00;;
54599;SDS011;40500;51.084;16.958;2023-05-07T13:39:48;3.50;;;3.10;;
54599;SDS011;40500;51.084;16.958;2023-05-07T13:42:18;3.30;;;3.00;;
54599;SDS011;40500;51.084;16.958;2023-05-07T13:44:48;3.40;;;3.10;;
54599;SDS011;40500;51.084;16.958;2023-05-07T13:47:19;3.50;;;2.50;;
54599;SDS011;40500;51.084;16.958;2023-05-07T13:49:51;2.70;;;2.40;;
54599;SDS011;40500;51.084;16.958;2023-05-07T13:52:22;3.10;;;2.50;;
54599;SDS011;40500;51.084;16.958;2023-05-07T13:54:53;3.30;;;3.00;;
54599;SDS011;40500;51.084;16.958;2023-05-07T13:57:24;4.30;;;2.40;;
54599;SDS011;40500;51.084;16.958;2023-05-07T13:59:54;2.40;;;2.20;;
54599;SDS011;40500;51.084;16.958;2023-05-07T14:02:24;2.80;;;2.60;;
54599;SDS011;40500;51.084;16.958;2023-05-07T14:04:55;3.20;;;2.40;;
54599;SDS011;40500;51.084;16.958;2023-05-07T14:07:25;2.70;;;2.40;;
54599;SDS011;40500;51.084;16.958;2023-05-07T14:09:56;4.00;;;2.70;;
54599;SDS011;40500;51.084;16.958;2023-05-07T14:12:26;3.10;;;2.70;;
54599;SDS011;40500;51.084;16.958;2023-05-07T14:14:57;2.80;;;2.60;;
54599;SDS011;40500;51.084;16.958;2023-05-07T14:17:27;2.60;;;2.40;;
54599;SDS011;40500;51.084;16.958;2023-05-07T14:19:57;4.00;;;2.50;;
54599;SDS011;40500;51.084;16.958;2023-05-07T14:22:28;3.30;;;2.60;;
54599;SDS011;40500;51.084;16.958;2023-05-07T14:24:58;3.20;;;2.50;;
54599;SDS011;40500;51.084;16.958;2023-05-07T14:27:32;2.60;;;2.40;;
54599;SDS011;40500;51.084;16.958;2023-05-07T14:30:02;3.90;;;2.20;;
54599;SDS011;40500;51.084;16.958;2023-05-07T14:32:34;3.40;;;2.20;;
54599;SDS011;40500;51.084;16.958;2023-05-07T14:35:05;3.30;;;2.50;;
54599;SDS011;40500;51.084;16.958;2023-05-07T14:37:36;2.70;;;2.40;;
54599;SDS011;40500;51.084;16.958;2023-05-07T14:40:08;2.50;;;2.30;;
54599;SDS011;40500;51.084;16.958;2023-05-07T14:42:40;2.30;;;2.10;;
54599;SDS011;40500;51.084;16.958;2023-05-07T14:45:11;3.00;;;2.80;;
54599;SDS011;40500;51.084;16.958;2023-05-07T14:47:42;2.60;;;2.20;;
54599;SDS011;40500;51.084;16.958;2023-05-07T14:50:12;2.50;;;2.30;;
54599;SDS011;40500;51.084;16.958;2023-05-07T14:52:42;4.80;;;2.40;;
54599;SDS011;40500;51.084;16.958;2023-05-07T14:55:13;3.30;;;2.70;;
54599;SDS011;40500;51.084;16.958;2023-05-07T14:57:43;2.90;;;2.60;;
54599;SDS011;40500;51.084;16.958;2023-05-07T15:00:14;2.40;;;2.10;;
54599;SDS011;40500;51.084;16.958;2023-05-07T15:02:44;2.80;;;2.30;;
54599;SDS011;40500;51.084;16.958;2023-05-07T15:05:15;2.90;;;2.50;;
54599;SDS011;40500;51.084;16.958;2023-05-07T15:07:46;2.60;;;2.40;;
54599;SDS011;40500;51.084;16.958;2023-05-07T15:10:17;5.00;;;2.30;;
54599;SDS011;40500;51.084;16.958;2023-05-07T15:12:47;1.80;;;1.70;;